sensor_id;sensor_type;location;lat;lon;timestamp;pressure;altitude;pressure_sealevel;temperature;humidity
69214;BME280;56325;47.030;18.518;2023-04-09T00:01:48;101126.13;;;5.53;92.93
69214;BME280;56325;47.030;18.518;2023-04-09T00:04:23;101124.56;;;5.56;92.41
69214;BME280;56325;47.030;18.518;2023-04-09T00:06:59;101123.81;;;5.52;92.74
69214;BME280;56325;47.030;18.518;2023-04-09T00:09:34;101125.41;;;5.46;92.76
69214;BME280;56325;47.030;18.518;2023-04-09T00:12:08;101134.03;;;5.41;93.07
69214;BME280;56325;47.030;18.518;2023-04-09T00:14:43;101136.44;;;5.32;93.19
69214;BME280;56325;47.030;18.518;2023-04-09T00:17:17;101139.47;;;5.41;93.33
69214;BME280;56325;47.030;18.518;2023-04-09T00:19:52;101135.50;;;5.52;92.97
69214;BME280;56325;47.030;18.518;2023-04-09T00:22:28;101131.69;;;5.39;93.07
69214;BME280;56325;47.030;18.518;2023-04-09T00:25:03;101131.69;;;5.43;92.87
69214;BME280;56325;47.030;18.518;2023-04-09T00:27:37;101129.06;;;5.28;93.31
69214;BME280;56325;47.030;18.518;2023-04-09T00:30:13;101125.53;;;5.32;93.62
69214;BME280;56325;47.030;18.518;2023-04-09T00:32:48;101124.78;;;5.24;93.37
69214;BME280;56325;47.030;18.518;2023-04-09T00:35:23;101125.53;;;5.28;93.61
69214;BME280;56325;47.030;18.518;2023-04-09T00:37:59;101124.41;;;5.22;93.76
69214;BME280;56325;47.030;18.518;2023-04-09T00:40:33;101125.09;;;5.37;93.47
69214;BME280;56325;47.030;18.518;2023-04-09T00:43:08;101126.28;;;5.36;93.13
69214;BME280;56325;47.030;18.518;2023-04-09T00:45:44;101135.63;;;5.35;92.79
69214;BME280;56325;47.030;18.518;2023-04-09T00:48:19;101126.62;;;5.41;92.72
69214;BME280;56325;47.030;18.518;2023-04-09T00:50:54;101130.94;;;5.35;92.50
69214;BME280;56325;47.030;18.518;2023-04-09T00:53:31;101124.91;;;5.13;93.63
69214;BME280;56325;47.030;18.518;2023-04-09T00:56:06;101130.69;;;5.19;93.67
69214;BME280;56325;47.030;18.518;2023-04-09T00:58:40;101128.84;;;5.05;93.94
69214;BME280;56325;47.030;18.518;2023-04-09T01:01:15;101120.28;;;5.03;94.35
69214;BME280;56325;47.030;18.518;2023-04-09T01:03:50;101119.53;;;4.99;94.66
69214;BME280;56325;47.030;18.518;2023-04-09T01:06:29;101126.50;;;5.07;94.31
69214;BME280;56325;47.030;18.518;2023-04-09T01:09:08;101125.34;;;5.05;94.29
69214;BME280;56325;47.030;18.518;2023-04-09T01:11:57;101121.84;;;5.04;93.93
69214;BME280;56325;47.030;18.518;2023-04-09T01:14:37;101126.47;;;5.11;93.98
69214;BME280;56325;47.030;18.518;2023-04-09T01:17:19;101123.81;;;5.00;94.03
69214;BME280;56325;47.030;18.518;2023-04-09T01:19:59;101126.88;;;5.09;94.25
69214;BME280;56325;47.030;18.518;2023-04-09T01:22:39;101127.66;;;5.06;94.26
69214;BME280;56325;47.030;18.518;2023-04-09T01:25:28;101122.59;;;5.08;94.18
69214;BME280;56325;47.030;18.518;2023-04-09T01:28:13;101117.91;;;5.12;94.00
69214;BME280;56325;47.030;18.518;2023-04-09T01:30:51;101126.06;;;5.16;93.65
69214;BME280;56325;47.030;18.518;2023-04-09T01:33:28;101129.47;;;5.23;93.45
69214;BME280;56325;47.030;18.518;2023-04-09T01:36:05;101120.50;;;5.26;93.19
69214;BME280;56325;47.030;18.518;2023-04-09T01:38:41;101127.53;;;5.24;92.61
69214;BME280;56325;47.030;18.518;2023-04-09T01:41:19;101132.25;;;5.20;93.06
69214;BME280;56325;47.030;18.518;2023-04-09T01:43:57;101133.66;;;5.39;92.49
69214;BME280;56325;47.030;18.518;2023-04-09T01:46:34;101129.84;;;5.25;92.71
69214;BME280;56325;47.030;18.518;2023-04-09T01:49:10;101125.19;;;5.22;93.03
69214;BME280;56325;47.030;18.518;2023-04-09T01:51:45;101130.97;;;5.32;92.86
69214;BME280;56325;47.030;18.518;2023-04-09T01:54:20;101125.94;;;5.26;92.71
69214;BME280;56325;47.030;18.518;2023-04-09T01:56:56;101129.81;;;5.33;92.35
69214;BME280;56325;47.030;18.518;2023-04-09T01:59:32;101126.25;;;5.39;91.95
69214;BME280;56325;47.030;18.518;2023-04-09T02:02:09;101125.97;;;5.23;92.27
69214;BME280;56325;47.030;18.518;2023-04-09T02:04:46;101128.31;;;5.24;92.59
69214;BME280;56325;47.030;18.518;2023-04-09T02:07:29;101125.56;;;5.24;92.45
69214;BME280;56325;47.030;18.518;2023-04-09T02:10:08;101124.28;;;5.40;91.71
69214;BME280;56325;47.030;18.518;2023-04-09T02:12:48;101123.22;;;5.26;91.76
69214;BME280;56325;47.030;18.518;2023-04-09T02:15:25;101116.06;;;5.47;91.08
69214;BME280;56325;47.030;18.518;2023-04-09T02:18:01;101124.31;;;5.36;91.33
69214;BME280;56325;47.030;18.518;2023-04-09T02:20:36;101128.63;;;5.34;91.68
69214;BME280;56325;47.030;18.518;2023-04-09T02:23:10;101120.03;;;5.35;91.32
69214;BME280;56325;47.030;18.518;2023-04-09T02:25:45;101123.88;;;5.45;91.01
69214;BME280;56325;47.030;18.518;2023-04-09T02:28:19;101116.50;;;5.42;91.23
69214;BME280;56325;47.030;18.518;2023-04-09T02:30:57;101119.25;;;5.35;90.93
69214;BME280;56325;47.030;18.518;2023-04-09T02:33:32;101114.22;;;5.33;91.05
69214;BME280;56325;47.030;18.518;2023-04-09T02:36:10;101118.56;;;5.23;91.59
69214;BME280;56325;47.030;18.518;2023-04-09T02:38:45;101115.44;;;5.25;91.79
69214;BME280;56325;47.030;18.518;2023-04-09T02:41:19;101109.69;;;5.16;91.83
69214;BME280;56325;47.030;18.518;2023-04-09T02:43:54;101105.06;;;5.09;91.81
69214;BME280;56325;47.030;18.518;2023-04-09T02:46:31;101103.50;;;5.08;92.16
69214;BME280;56325;47.030;18.518;2023-04-09T02:49:06;101107.47;;;5.00;92.48
69214;BME280;56325;47.030;18.518;2023-04-09T02:51:41;101109.38;;;5.03;92.93
69214;BME280;56325;47.030;18.518;2023-04-09T02:54:15;101109.44;;;4.96;92.58
69214;BME280;56325;47.030;18.518;2023-04-09T02:56:50;101119.50;;;5.03;92.60
69214;BME280;56325;47.030;18.518;2023-04-09T02:59:24;101108.16;;;5.11;92.36
69214;BME280;56325;47.030;18.518;2023-04-09T03:02:00;101113.19;;;5.16;92.21
69214;BME280;56325;47.030;18.518;2023-04-09T03:04:35;101117.88;;;5.16;91.91
69214;BME280;56325;47.030;18.518;2023-04-09T03:07:10;101114.78;;;5.10;92.22
69214;BME280;56325;47.030;18.518;2023-04-09T03:09:44;101117.12;;;5.08;92.28
69214;BME280;56325;47.030;18.518;2023-04-09T03:12:18;101116.28;;;5.18;91.85
69214;BME280;56325;47.030;18.518;2023-04-09T03:14:53;101114.00;;;5.10;91.92
69214;BME280;56325;47.030;18.518;2023-04-09T03:17:29;101116.38;;;5.04;92.06
69214;BME280;56325;47.030;18.518;2023-04-09T03:20:05;101108.97;;;5.08;91.87
69214;BME280;56325;47.030;18.518;2023-04-09T03:22:40;101112.50;;;5.05;91.87
69214;BME280;56325;47.030;18.518;2023-04-09T03:25:15;101108.97;;;5.08;91.66
69214;BME280;56325;47.030;18.518;2023-04-09T03:27:51;101102.72;;;5.11;91.40
69214;BME280;56325;47.030;18.518;2023-04-09T03:30:27;101100.38;;;5.13;91.42
69214;BME280;56325;47.030;18.518;2023-04-09T03:33:03;101104.31;;;5.05;91.84
69214;BME280;56325;47.030;18.518;2023-04-09T03:35:39;101117.12;;;5.08;91.59
69214;BME280;56325;47.030;18.518;2023-04-09T03:38:14;101111.28;;;5.13;91.55
69214;BME280;56325;47.030;18.518;2023-04-09T03:40:48;101118.63;;;5.20;91.01
69214;BME280;56325;47.030;18.518;2023-04-09T03:43:23;101111.19;;;5.20;90.93
69214;BME280;56325;47.030;18.518;2023-04-09T03:45:57;101109.34;;;5.07;91.30
69214;BME280;56325;47.030;18.518;2023-04-09T03:48:33;101115.91;;;5.16;90.68
69214;BME280;56325;47.030;18.518;2023-04-09T03:51:10;101109.19;;;5.28;90.35
69214;BME280;56325;47.030;18.518;2023-04-09T03:53:46;101110.00;;;5.25;90.03
69214;BME280;56325;47.030;18.518;2023-04-09T03:56:21;101120.19;;;5.17;89.88
69214;BME280;56325;47.030;18.518;2023-04-09T03:58:56;101118.72;;;5.06;91.54
69214;BME280;56325;47.030;18.518;2023-04-09T04:01:32;101123.38;;;5.05;91.83
69214;BME280;56325;47.030;18.518;2023-04-09T04:04:08;101111.66;;;5.15;90.97
69214;BME280;56325;47.030;18.518;2023-04-09T04:06:44;101119.44;;;5.13;91.04
69214;BME280;56325;47.030;18.518;2023-04-09T04:09:22;101124.53;;;5.11;91.05
69214;BME280;56325;47.030;18.518;2023-04-09T04:11:57;101126.88;;;5.09;91.25
69214;BME280;56325;47.030;18.518;2023-04-09T04:14:33;101130.34;;;5.13;90.90
69214;BME280;56325;47.030;18.518;2023-04-09T04:17:09;101133.44;;;5.19;90.97
69214;BME280;56325;47.030;18.518;2023-04-09T04:19:46;101131.94;;;5.07;90.94
69214;BME280;56325;47.030;18.518;2023-04-09T04:22:20;101142.09;;;5.03;91.53
69214;BME280;56325;47.030;18.518;2023-04-09T04:24:58;101131.56;;;5.05;91.52
69214;BME280;56325;47.030;18.518;2023-04-09T04:27:33;101135.81;;;5.13;91.17
69214;BME280;56325;47.030;18.518;2023-04-09T04:30:09;101136.50;;;5.21;90.54
69214;BME280;56325;47.030;18.518;2023-04-09T04:32:44;101140.88;;;5.11;90.69
69214;BME280;56325;47.030;18.518;2023-04-09T04:35:22;101138.16;;;5.11;91.41
69214;BME280;56325;47.030;18.518;2023-04-09T04:37:58;101145.00;;;5.30;90.87
69214;BME280;56325;47.030;18.518;2023-04-09T04:40:35;101141.94;;;5.24;89.37
69214;BME280;56325;47.030;18.518;2023-04-09T04:43:10;101141.56;;;5.22;90.04
69214;BME280;56325;47.030;18.518;2023-04-09T04:45:45;101127.28;;;8.36;100.00
69214;BME280;56325;47.030;18.518;2023-04-09T04:48:20;101121.84;;;9.08;100.00
69214;BME280;56325;47.030;18.518;2023-04-09T04:50:57;101136.62;;;7.75;95.44
69214;BME280;56325;47.030;18.518;2023-04-09T04:53:32;101145.13;;;6.46;90.44
69214;BME280;56325;47.030;18.518;2023-04-09T04:56:12;101142.91;;;6.34;90.29
69214;BME280;56325;47.030;18.518;2023-04-09T04:58:47;101138.97;;;6.05;89.92
69214;BME280;56325;47.030;18.518;2023-04-09T05:01:22;101142.16;;;5.96;90.25
69214;BME280;56325;47.030;18.518;2023-04-09T05:03:57;101143.03;;;5.82;90.15
69214;BME280;56325;47.030;18.518;2023-04-09T05:06:34;101146.53;;;5.83;90.12
69214;BME280;56325;47.030;18.518;2023-04-09T05:09:10;101142.25;;;5.85;90.40
69214;BME280;56325;47.030;18.518;2023-04-09T05:11:45;101141.00;;;5.97;90.04
69214;BME280;56325;47.030;18.518;2023-04-09T05:14:20;101145.75;;;5.89;89.92
69214;BME280;56325;47.030;18.518;2023-04-09T05:16:54;101151.16;;;5.93;89.90
69214;BME280;56325;47.030;18.518;2023-04-09T05:19:30;101150.38;;;5.93;90.18
69214;BME280;56325;47.030;18.518;2023-04-09T05:22:07;101142.16;;;5.96;90.06
69214;BME280;56325;47.030;18.518;2023-04-09T05:24:41;101141.72;;;6.01;89.43
69214;BME280;56325;47.030;18.518;2023-04-09T05:27:16;101153.59;;;5.80;90.18
69214;BME280;56325;47.030;18.518;2023-04-09T05:29:52;101143.69;;;9.11;100.00
69214;BME280;56325;47.030;18.518;2023-04-09T05:32:27;101146.81;;;9.46;96.29
69214;BME280;56325;47.030;18.518;2023-04-09T05:35:02;101149.41;;;8.25;93.38
69214;BME280;56325;47.030;18.518;2023-04-09T05:37:40;101159.50;;;7.11;87.21
69214;BME280;56325;47.030;18.518;2023-04-09T05:40:14;101156.59;;;6.95;88.24
69214;BME280;56325;47.030;18.518;2023-04-09T05:42:49;101171.75;;;6.73;86.82
69214;BME280;56325;47.030;18.518;2023-04-09T05:45:25;101170.38;;;6.57;87.23
69214;BME280;56325;47.030;18.518;2023-04-09T05:48:01;101166.94;;;6.50;87.88
69214;BME280;56325;47.030;18.518;2023-04-09T05:50:36;101165.87;;;6.40;88.56
69214;BME280;56325;47.030;18.518;2023-04-09T05:53:28;101160.81;;;6.39;88.88
69214;BME280;56325;47.030;18.518;2023-04-09T05:56:12;101175.41;;;6.25;89.30
69214;BME280;56325;47.030;18.518;2023-04-09T05:58:53;101168.53;;;6.47;89.84
69214;BME280;56325;47.030;18.518;2023-04-09T06:02:55;101171.41;;;7.24;86.44
69214;BME280;56325;47.030;18.518;2023-04-09T06:05:34;101171.41;;;7.24;86.44
69214;BME280;56325;47.030;18.518;2023-04-09T06:08:09;101177.34;;;6.62;87.94
69214;BME280;56325;47.030;18.518;2023-04-09T06:10:48;101177.97;;;6.73;87.97
69214;BME280;56325;47.030;18.518;2023-04-09T06:13:27;101174.25;;;6.90;86.97
69214;BME280;56325;47.030;18.518;2023-04-09T06:16:04;101180.25;;;6.78;88.20
69214;BME280;56325;47.030;18.518;2023-04-09T06:18:44;101170.13;;;8.26;99.44
69214;BME280;56325;47.030;18.518;2023-04-09T06:21:21;101162.97;;;10.22;99.93
69214;BME280;56325;47.030;18.518;2023-04-09T06:23:56;101167.25;;;11.06;91.02
69214;BME280;56325;47.030;18.518;2023-04-09T06:26:33;101167.12;;;9.65;82.19
69214;BME280;56325;47.030;18.518;2023-04-09T06:29:10;101167.97;;;8.77;82.05
69214;BME280;56325;47.030;18.518;2023-04-09T06:31:47;101183.47;;;8.24;82.83
69214;BME280;56325;47.030;18.518;2023-04-09T06:34:23;101179.66;;;8.18;81.89
69214;BME280;56325;47.030;18.518;2023-04-09T06:36:57;101187.78;;;8.02;83.40
69214;BME280;56325;47.030;18.518;2023-04-09T06:39:32;101181.72;;;7.67;85.14
69214;BME280;56325;47.030;18.518;2023-04-09T06:42:10;101185.19;;;7.71;85.31
69214;BME280;56325;47.030;18.518;2023-04-09T06:44:45;101183.69;;;7.67;85.11
69214;BME280;56325;47.030;18.518;2023-04-09T06:47:20;101180.81;;;7.23;85.23
69214;BME280;56325;47.030;18.518;2023-04-09T06:49:56;101183.19;;;7.21;86.89
69214;BME280;56325;47.030;18.518;2023-04-09T06:52:31;101180.91;;;7.43;85.14
69214;BME280;56325;47.030;18.518;2023-04-09T06:55:06;101187.47;;;7.22;86.93
69214;BME280;56325;47.030;18.518;2023-04-09T06:57:40;101178.38;;;7.02;89.04
69214;BME280;56325;47.030;18.518;2023-04-09T07:00:15;101188.66;;;7.21;87.85
69214;BME280;56325;47.030;18.518;2023-04-09T07:02:50;101192.13;;;7.26;88.89
69214;BME280;56325;47.030;18.518;2023-04-09T07:05:28;101198.84;;;7.48;88.10
69214;BME280;56325;47.030;18.518;2023-04-09T07:08:03;101193.66;;;7.27;87.23
69214;BME280;56325;47.030;18.518;2023-04-09T07:10:37;101187.38;;;7.30;88.24
69214;BME280;56325;47.030;18.518;2023-04-09T07:13:12;101201.16;;;7.49;87.05
69214;BME280;56325;47.030;18.518;2023-04-09T07:15:46;101191.28;;;7.55;85.82
69214;BME280;56325;47.030;18.518;2023-04-09T07:18:21;101202.78;;;7.70;84.14
69214;BME280;56325;47.030;18.518;2023-04-09T07:20:57;101188.31;;;8.60;96.47
69214;BME280;56325;47.030;18.518;2023-04-09T07:23:33;101197.34;;;8.37;88.87
69214;BME280;56325;47.030;18.518;2023-04-09T07:26:09;101186.37;;;8.76;88.52
69214;BME280;56325;47.030;18.518;2023-04-09T07:28:43;101207.84;;;8.18;83.90
69214;BME280;56325;47.030;18.518;2023-04-09T07:31:18;101204.62;;;8.23;81.37
69214;BME280;56325;47.030;18.518;2023-04-09T07:33:53;101203.06;;;8.46;83.37
69214;BME280;56325;47.030;18.518;2023-04-09T07:36:28;101199.97;;;8.64;83.36
69214;BME280;56325;47.030;18.518;2023-04-09T07:39:04;101183.59;;;11.86;96.34
69214;BME280;56325;47.030;18.518;2023-04-09T07:41:38;101181.38;;;12.50;89.73
69214;BME280;56325;47.030;18.518;2023-04-09T07:44:13;101193.13;;;10.67;72.31
69214;BME280;56325;47.030;18.518;2023-04-09T07:46:48;101198.44;;;10.00;75.71
69214;BME280;56325;47.030;18.518;2023-04-09T07:49:22;101204.62;;;9.39;75.46
69214;BME280;56325;47.030;18.518;2023-04-09T07:51:58;101201.00;;;9.26;75.58
69214;BME280;56325;47.030;18.518;2023-04-09T07:54:34;101206.72;;;9.15;74.94
69214;BME280;56325;47.030;18.518;2023-04-09T07:57:08;101214.72;;;8.70;73.65
69214;BME280;56325;47.030;18.518;2023-04-09T07:59:43;101207.09;;;8.61;73.42
69214;BME280;56325;47.030;18.518;2023-04-09T08:02:17;101214.72;;;8.50;77.31
69214;BME280;56325;47.030;18.518;2023-04-09T08:04:52;101211.84;;;8.57;76.96
69214;BME280;56325;47.030;18.518;2023-04-09T08:07:28;101214.59;;;8.57;76.79
69214;BME280;56325;47.030;18.518;2023-04-09T08:10:04;101220.91;;;8.34;77.70
69214;BME280;56325;47.030;18.518;2023-04-09T08:12:39;101211.78;;;8.61;77.11
69214;BME280;56325;47.030;18.518;2023-04-09T08:15:13;101220.91;;;8.74;76.90
69214;BME280;56325;47.030;18.518;2023-04-09T08:17:48;101226.53;;;8.67;76.89
69214;BME280;56325;47.030;18.518;2023-04-09T08:20:23;101229.78;;;8.62;77.54
69214;BME280;56325;47.030;18.518;2023-04-09T08:22:59;101222.44;;;8.75;77.58
69214;BME280;56325;47.030;18.518;2023-04-09T08:25:34;101227.75;;;8.66;77.76
69214;BME280;56325;47.030;18.518;2023-04-09T08:28:08;101231.81;;;8.77;76.39
69214;BME280;56325;47.030;18.518;2023-04-09T08:30:43;101232.22;;;8.96;75.78
69214;BME280;56325;47.030;18.518;2023-04-09T08:33:19;101238.97;;;8.91;74.72
69214;BME280;56325;47.030;18.518;2023-04-09T08:35:54;101245.41;;;8.65;72.87
69214;BME280;56325;47.030;18.518;2023-04-09T08:38:29;101228.03;;;11.37;97.66
69214;BME280;56325;47.030;18.518;2023-04-09T08:41:04;101228.75;;;12.70;89.85
69214;BME280;56325;47.030;18.518;2023-04-09T08:43:39;101224.22;;;13.38;84.19
69214;BME280;56325;47.030;18.518;2023-04-09T08:46:30;101228.06;;;13.90;79.69
69214;BME280;56325;47.030;18.518;2023-04-09T08:49:07;101224.84;;;13.91;76.14
69214;BME280;56325;47.030;18.518;2023-04-09T08:51:45;101230.09;;;14.17;74.99
69214;BME280;56325;47.030;18.518;2023-04-09T08:54:21;101239.78;;;14.21;74.72
69214;BME280;56325;47.030;18.518;2023-04-09T08:56:58;101237.03;;;14.21;73.17
69214;BME280;56325;47.030;18.518;2023-04-09T08:59:33;101240.72;;;14.36;73.59
69214;BME280;56325;47.030;18.518;2023-04-09T09:02:10;101232.28;;;14.40;72.39
69214;BME280;56325;47.030;18.518;2023-04-09T09:04:46;101235.38;;;14.42;72.43
69214;BME280;56325;47.030;18.518;2023-04-09T09:07:21;101233.37;;;14.42;72.16
69214;BME280;56325;47.030;18.518;2023-04-09T09:09:58;101249.34;;;14.29;71.96
69214;BME280;56325;47.030;18.518;2023-04-09T09:12:37;101251.03;;;13.06;65.42
69214;BME280;56325;47.030;18.518;2023-04-09T09:15:25;101248.19;;;12.32;64.44
69214;BME280;56325;47.030;18.518;2023-04-09T09:18:00;101243.66;;;11.40;65.23
69214;BME280;56325;47.030;18.518;2023-04-09T09:20:42;101258.81;;;10.36;68.40
69214;BME280;56325;47.030;18.518;2023-04-09T09:23:33;101258.41;;;10.50;68.70
69214;BME280;56325;47.030;18.518;2023-04-09T09:26:14;101251.09;;;10.31;66.07
69214;BME280;56325;47.030;18.518;2023-04-09T09:28:50;101256.31;;;10.09;65.45
69214;BME280;56325;47.030;18.518;2023-04-09T09:31:25;101253.91;;;10.11;68.09
69214;BME280;56325;47.030;18.518;2023-04-09T09:34:07;101249.19;;;9.95;69.45
69214;BME280;56325;47.030;18.518;2023-04-09T09:36:42;101263.06;;;9.56;68.40
69214;BME280;56325;47.030;18.518;2023-04-09T09:39:17;101258.22;;;9.27;69.37
69214;BME280;56325;47.030;18.518;2023-04-09T09:42:06;101243.66;;;9.30;70.97
69214;BME280;56325;47.030;18.518;2023-04-09T09:44:41;101251.97;;;9.27;71.78
69214;BME280;56325;47.030;18.518;2023-04-09T09:47:17;101262.47;;;8.92;72.03
69214;BME280;56325;47.030;18.518;2023-04-09T09:49:52;101253.59;;;9.04;73.12
69214;BME280;56325;47.030;18.518;2023-04-09T09:52:27;101250.16;;;9.00;73.04
69214;BME280;56325;47.030;18.518;2023-04-09T09:55:04;101259.03;;;8.88;72.96
69214;BME280;56325;47.030;18.518;2023-04-09T09:57:43;101259.38;;;8.90;72.72
69214;BME280;56325;47.030;18.518;2023-04-09T10:00:18;101259.94;;;8.81;74.04
69214;BME280;56325;47.030;18.518;2023-04-09T10:03:04;101254.31;;;9.08;73.76
69214;BME280;56325;47.030;18.518;2023-04-09T10:05:41;101252.19;;;9.16;72.33
69214;BME280;56325;47.030;18.518;2023-04-09T10:08:16;101257.03;;;9.28;72.14
69214;BME280;56325;47.030;18.518;2023-04-09T10:10:51;101252.16;;;9.36;70.65
69214;BME280;56325;47.030;18.518;2023-04-09T10:13:30;101247.66;;;9.26;71.80
69214;BME280;56325;47.030;18.518;2023-04-09T10:16:06;101252.25;;;9.12;70.56
69214;BME280;56325;47.030;18.518;2023-04-09T10:18:41;101249.88;;;9.14;70.24
69214;BME280;56325;47.030;18.518;2023-04-09T10:21:24;101253.31;;;9.18;68.67
69214;BME280;56325;47.030;18.518;2023-04-09T10:24:00;101247.22;;;9.96;86.12
69214;BME280;56325;47.030;18.518;2023-04-09T10:26:40;101245.03;;;12.21;90.68
69214;BME280;56325;47.030;18.518;2023-04-09T10:29:16;101247.91;;;10.90;69.69
69214;BME280;56325;47.030;18.518;2023-04-09T10:31:52;101245.59;;;10.60;66.71
69214;BME280;56325;47.030;18.518;2023-04-09T10:34:27;101240.78;;;10.18;64.37
69214;BME280;56325;47.030;18.518;2023-04-09T10:37:01;101238.81;;;9.86;66.86
69214;BME280;56325;47.030;18.518;2023-04-09T10:39:38;101238.62;;;9.94;68.63
69214;BME280;56325;47.030;18.518;2023-04-09T10:42:17;101236.31;;;9.92;69.77
69214;BME280;56325;47.030;18.518;2023-04-09T10:45:08;101238.62;;;9.94;67.96
69214;BME280;56325;47.030;18.518;2023-04-09T10:47:43;101237.34;;;9.82;66.05
69214;BME280;56325;47.030;18.518;2023-04-09T10:50:20;101237.44;;;9.78;64.75
69214;BME280;56325;47.030;18.518;2023-04-09T10:52:56;101237.06;;;9.60;65.23
69214;BME280;56325;47.030;18.518;2023-04-09T10:55:34;101237.59;;;9.71;66.99
69214;BME280;56325;47.030;18.518;2023-04-09T10:58:11;101242.59;;;9.93;68.53
69214;BME280;56325;47.030;18.518;2023-04-09T11:00:49;101243.09;;;10.04;66.93
69214;BME280;56325;47.030;18.518;2023-04-09T11:03:25;101240.97;;;9.95;64.68
69214;BME280;56325;47.030;18.518;2023-04-09T11:06:04;101236.16;;;9.83;65.75
69214;BME280;56325;47.030;18.518;2023-04-09T11:08:43;101236.41;;;9.89;63.37
69214;BME280;56325;47.030;18.518;2023-04-09T11:11:24;101238.72;;;9.90;64.71
69214;BME280;56325;47.030;18.518;2023-04-09T11:13:59;101234.59;;;9.66;67.17
69214;BME280;56325;47.030;18.518;2023-04-09T11:16:36;101238.78;;;9.54;65.48
69214;BME280;56325;47.030;18.518;2023-04-09T11:19:10;101238.03;;;9.86;66.83
69214;BME280;56325;47.030;18.518;2023-04-09T11:21:46;101238.72;;;9.90;65.23
69214;BME280;56325;47.030;18.518;2023-04-09T11:24:22;101236.56;;;9.98;64.14
69214;BME280;56325;47.030;18.518;2023-04-09T11:26:56;101238.97;;;9.79;65.62
69214;BME280;56325;47.030;18.518;2023-04-09T11:29:31;101235.53;;;9.59;67.21
69214;BME280;56325;47.030;18.518;2023-04-09T11:32:07;101234.34;;;9.76;66.15
69214;BME280;56325;47.030;18.518;2023-04-09T11:34:41;101232.72;;;9.79;65.57
69214;BME280;56325;47.030;18.518;2023-04-09T11:37:16;101226.28;;;10.02;67.18
69214;BME280;56325;47.030;18.518;2023-04-09T11:39:50;101234.84;;;9.55;63.76
69214;BME280;56325;47.030;18.518;2023-04-09T11:42:30;101236.06;;;9.70;65.19
69214;BME280;56325;47.030;18.518;2023-04-09T11:45:05;101232.09;;;9.71;65.21
69214;BME280;56325;47.030;18.518;2023-04-09T11:47:42;101228.25;;;9.69;65.31
69214;BME280;56325;47.030;18.518;2023-04-09T11:50:18;101232.34;;;9.61;66.37
69214;BME280;56325;47.030;18.518;2023-04-09T11:52:53;101237.41;;;9.62;66.43
69214;BME280;56325;47.030;18.518;2023-04-09T11:55:28;101236.13;;;9.67;66.61
69214;BME280;56325;47.030;18.518;2023-04-09T11:58:03;101234.78;;;12.21;94.76
69214;BME280;56325;47.030;18.518;2023-04-09T12:00:39;101227.75;;;12.42;85.85
69214;BME280;56325;47.030;18.518;2023-04-09T12:03:15;101218.66;;;11.34;65.22
69214;BME280;56325;47.030;18.518;2023-04-09T12:05:50;101226.19;;;10.50;63.19
69214;BME280;56325;47.030;18.518;2023-04-09T12:08:26;101227.41;;;10.21;62.46
69214;BME280;56325;47.030;18.518;2023-04-09T12:11:08;101221.97;;;9.84;63.97
69214;BME280;56325;47.030;18.518;2023-04-09T12:13:44;101227.06;;;9.86;66.28
69214;BME280;56325;47.030;18.518;2023-04-09T12:16:19;101226.09;;;9.93;65.05
69214;BME280;56325;47.030;18.518;2023-04-09T12:18:55;101227.47;;;10.01;66.89
69214;BME280;56325;47.030;18.518;2023-04-09T12:21:44;101227.97;;;10.12;64.82
69214;BME280;56325;47.030;18.518;2023-04-09T12:24:22;101223.72;;;12.56;92.75
69214;BME280;56325;47.030;18.518;2023-04-09T12:26:57;101218.00;;;11.05;62.82
69214;BME280;56325;47.030;18.518;2023-04-09T12:29:31;101233.25;;;10.51;66.07
69214;BME280;56325;47.030;18.518;2023-04-09T12:32:06;101228.41;;;10.56;66.43
69214;BME280;56325;47.030;18.518;2023-04-09T12:34:42;101226.37;;;10.43;67.17
69214;BME280;56325;47.030;18.518;2023-04-09T12:37:19;101225.50;;;10.46;67.05
69214;BME280;56325;47.030;18.518;2023-04-09T12:39:55;101231.50;;;10.29;66.20
69214;BME280;56325;47.030;18.518;2023-04-09T12:42:30;101223.25;;;10.12;64.23
69214;BME280;56325;47.030;18.518;2023-04-09T12:45:06;101227.28;;;10.08;64.59
69214;BME280;56325;47.030;18.518;2023-04-09T12:47:40;101223.00;;;10.07;63.87
69214;BME280;56325;47.030;18.518;2023-04-09T12:50:17;101224.56;;;10.24;64.16
69214;BME280;56325;47.030;18.518;2023-04-09T12:52:51;101218.00;;;10.18;65.34
69214;BME280;56325;47.030;18.518;2023-04-09T12:55:26;101225.41;;;10.21;64.55
69214;BME280;56325;47.030;18.518;2023-04-09T12:58:01;101223.59;;;10.14;65.67
69214;BME280;56325;47.030;18.518;2023-04-09T13:00:38;101218.69;;;10.38;65.63
69214;BME280;56325;47.030;18.518;2023-04-09T13:03:13;101222.22;;;10.51;66.95
69214;BME280;56325;47.030;18.518;2023-04-09T13:05:50;101221.44;;;10.38;64.27
69214;BME280;56325;47.030;18.518;2023-04-09T13:08:25;101216.91;;;10.32;65.16
69214;BME280;56325;47.030;18.518;2023-04-09T13:11:00;101210.37;;;10.55;65.20
69214;BME280;56325;47.030;18.518;2023-04-09T13:13:34;101212.00;;;10.52;64.84
69214;BME280;56325;47.030;18.518;2023-04-09T13:16:09;101217.03;;;10.70;63.57
69214;BME280;56325;47.030;18.518;2023-04-09T13:18:43;101206.75;;;10.58;63.33
69214;BME280;56325;47.030;18.518;2023-04-09T13:21:19;101213.88;;;10.55;63.43
69214;BME280;56325;47.030;18.518;2023-04-09T13:23:53;101197.94;;;11.04;62.67
69214;BME280;56325;47.030;18.518;2023-04-09T13:26:29;101205.44;;;11.42;61.19
69214;BME280;56325;47.030;18.518;2023-04-09T13:29:03;101197.94;;;12.15;59.91
69214;BME280;56325;47.030;18.518;2023-04-09T13:31:38;101188.00;;;12.74;57.90
69214;BME280;56325;47.030;18.518;2023-04-09T13:34:13;101187.53;;;12.75;56.30
69214;BME280;56325;47.030;18.518;2023-04-09T13:36:49;101191.19;;;12.51;56.75